sensor_id;sensor_type;location;lat;lon;timestamp;P1;durP1;ratioP1;P2;durP2;ratioP2
1837;SDS011;918;50.796;6.772;2023-05-10T00:01:54;6.30;;;5.80;;
1837;SDS011;918;50.796;6.772;2023-05-10T00:04:19;6.47;;;5.87;;
1837;SDS011;918;50.796;6.772;2023-05-10T00:06:45;6.27;;;5.77;;
1837;SDS011;918;50.796;6.772;2023-05-10T00:09:10;6.23;;;5.63;;
1837;SDS011;918;50.796;6.772;2023-05-10T00:11:35;5.60;;;5.20;;
1837;SDS011;918;50.796;6.772;2023-05-10T00:14:01;7.00;;;6.40;;
1837;SDS011;918;50.796;6.772;2023-05-10T00:16:26;6.80;;;6.20;;
1837;SDS011;918;50.796;6.772;2023-05-10T00:18:51;6.87;;;6.27;;
1837;SDS011;918;50.796;6.772;2023-05-10T00:21:16;6.77;;;6.27;;
1837;SDS011;918;50.796;6.772;2023-05-10T00:23:41;6.77;;;6.10;;
1837;SDS011;918;50.796;6.772;2023-05-10T00:26:07;6.60;;;6.10;;
1837;SDS011;918;50.796;6.772;2023-05-10T00:28:32;6.67;;;6.17;;
1837;SDS011;918;50.796;6.772;2023-05-10T00:30:57;7.77;;;7.10;;
1837;SDS011;918;50.796;6.772;2023-05-10T00:33:22;6.93;;;6.23;;
1837;SDS011;918;50.796;6.772;2023-05-10T00:35:48;8.80;;;7.10;;
1837;SDS011;918;50.796;6.772;2023-05-10T00:38:13;8.03;;;7.43;;
1837;SDS011;918;50.796;6.772;2023-05-10T00:40:39;7.40;;;6.80;;
1837;SDS011;918;50.796;6.772;2023-05-10T00:43:04;7.80;;;7.30;;
1837;SDS011;918;50.796;6.772;2023-05-10T00:45:30;8.00;;;7.30;;
1837;SDS011;918;50.796;6.772;2023-05-10T00:47:56;8.03;;;7.40;;
1837;SDS011;918;50.796;6.772;2023-05-10T00:50:21;8.43;;;7.83;;
1837;SDS011;918;50.796;6.772;2023-05-10T00:52:47;6.87;;;6.37;;
1837;SDS011;918;50.796;6.772;2023-05-10T00:55:13;7.53;;;6.93;;
1837;SDS011;918;50.796;6.772;2023-05-10T00:57:38;6.53;;;6.00;;
1837;SDS011;918;50.796;6.772;2023-05-10T01:00:03;6.50;;;5.90;;
1837;SDS011;918;50.796;6.772;2023-05-10T01:02:29;8.67;;;6.77;;
1837;SDS011;918;50.796;6.772;2023-05-10T01:04:55;6.70;;;6.10;;
1837;SDS011;918;50.796;6.772;2023-05-10T01:07:20;6.30;;;5.80;;
1837;SDS011;918;50.796;6.772;2023-05-10T01:09:45;5.60;;;5.10;;
1837;SDS011;918;50.796;6.772;2023-05-10T01:12:11;4.93;;;4.53;;
1837;SDS011;918;50.796;6.772;2023-05-10T01:14:36;5.00;;;4.60;;
1837;SDS011;918;50.796;6.772;2023-05-10T01:17:02;5.10;;;4.70;;
1837;SDS011;918;50.796;6.772;2023-05-10T01:19:29;10.63;;;6.10;;
1837;SDS011;918;50.796;6.772;2023-05-10T01:24:40;5.00;;;4.60;;
1837;SDS011;918;50.796;6.772;2023-05-10T01:41:27;5.50;;;5.10;;
1837;SDS011;918;50.796;6.772;2023-05-10T01:44:10;6.20;;;4.83;;
1837;SDS011;918;50.796;6.772;2023-05-10T01:46:53;7.50;;;6.80;;
1837;SDS011;918;50.796;6.772;2023-05-10T01:49:32;7.30;;;6.70;;
1837;SDS011;918;50.796;6.772;2023-05-10T01:52:03;8.07;;;7.37;;
1837;SDS011;918;50.796;6.772;2023-05-10T01:54:32;8.57;;;7.77;;
1837;SDS011;918;50.796;6.772;2023-05-10T01:57:07;8.50;;;7.70;;
1837;SDS011;918;50.796;6.772;2023-05-10T01:59:34;9.43;;;8.53;;
1837;SDS011;918;50.796;6.772;2023-05-10T02:02:01;9.40;;;8.53;;
1837;SDS011;918;50.796;6.772;2023-05-10T02:04:27;9.67;;;8.33;;
1837;SDS011;918;50.796;6.772;2023-05-10T02:06:53;10.83;;;9.80;;
1837;SDS011;918;50.796;6.772;2023-05-10T02:09:19;11.50;;;9.67;;
1837;SDS011;918;50.796;6.772;2023-05-10T02:11:45;10.67;;;9.57;;
1837;SDS011;918;50.796;6.772;2023-05-10T02:14:12;8.80;;;8.10;;
1837;SDS011;918;50.796;6.772;2023-05-10T02:16:37;9.10;;;8.30;;
1837;SDS011;918;50.796;6.772;2023-05-10T02:19:03;9.47;;;8.57;;
1837;SDS011;918;50.796;6.772;2023-05-10T02:21:30;8.33;;;7.53;;
1837;SDS011;918;50.796;6.772;2023-05-10T02:23:56;8.43;;;7.63;;
1837;SDS011;918;50.796;6.772;2023-05-10T02:26:22;8.23;;;7.53;;
1837;SDS011;918;50.796;6.772;2023-05-10T02:28:50;8.97;;;8.17;;
1837;SDS011;918;50.796;6.772;2023-05-10T02:31:15;9.20;;;8.40;;
1837;SDS011;918;50.796;6.772;2023-05-10T02:33:41;10.47;;;8.70;;
1837;SDS011;918;50.796;6.772;2023-05-10T02:36:07;9.97;;;8.97;;
1837;SDS011;918;50.796;6.772;2023-05-10T02:38:33;9.77;;;8.73;;
1837;SDS011;918;50.796;6.772;2023-05-10T02:40:59;11.03;;;10.00;;
1837;SDS011;918;50.796;6.772;2023-05-10T02:43:24;13.73;;;10.00;;
1837;SDS011;918;50.796;6.772;2023-05-10T02:45:50;11.47;;;10.33;;
1837;SDS011;918;50.796;6.772;2023-05-10T02:48:16;11.60;;;10.40;;
1837;SDS011;918;50.796;6.772;2023-05-10T02:50:43;11.87;;;10.70;;
1837;SDS011;918;50.796;6.772;2023-05-10T02:53:10;12.10;;;10.90;;
1837;SDS011;918;50.796;6.772;2023-05-10T02:55:37;12.83;;;11.53;;
1837;SDS011;918;50.796;6.772;2023-05-10T02:58:04;13.70;;;12.40;;
1837;SDS011;918;50.796;6.772;2023-05-10T03:00:29;13.10;;;11.70;;
1837;SDS011;918;50.796;6.772;2023-05-10T03:02:54;14.80;;;13.30;;
1837;SDS011;918;50.796;6.772;2023-05-10T03:05:20;13.20;;;11.50;;
1837;SDS011;918;50.796;6.772;2023-05-10T03:07:45;13.60;;;12.30;;
1837;SDS011;918;50.796;6.772;2023-05-10T03:10:11;12.80;;;11.50;;
1837;SDS011;918;50.796;6.772;2023-05-10T03:15:47;20.57;;;13.67;;
1837;SDS011;918;50.796;6.772;2023-05-10T03:18:29;12.90;;;11.67;;
1837;SDS011;918;50.796;6.772;2023-05-10T03:21:04;14.13;;;12.57;;
1837;SDS011;918;50.796;6.772;2023-05-10T03:23:34;12.57;;;11.37;;
1837;SDS011;918;50.796;6.772;2023-05-10T03:26:01;13.83;;;12.23;;
1837;SDS011;918;50.796;6.772;2023-05-10T03:28:27;15.60;;;13.50;;
1837;SDS011;918;50.796;6.772;2023-05-10T03:30:53;13.57;;;12.27;;
1837;SDS011;918;50.796;6.772;2023-05-10T03:33:19;16.27;;;14.50;;
1837;SDS011;918;50.796;6.772;2023-05-10T03:35:45;16.10;;;14.37;;
1837;SDS011;918;50.796;6.772;2023-05-10T03:38:11;16.07;;;14.40;;
1837;SDS011;918;50.796;6.772;2023-05-10T03:40:36;16.10;;;14.47;;
1837;SDS011;918;50.796;6.772;2023-05-10T03:43:02;17.33;;;15.50;;
1837;SDS011;918;50.796;6.772;2023-05-10T03:45:27;16.43;;;14.67;;
1837;SDS011;918;50.796;6.772;2023-05-10T03:47:52;17.97;;;16.13;;
1837;SDS011;918;50.796;6.772;2023-05-10T03:50:18;17.40;;;15.33;;
1837;SDS011;918;50.796;6.772;2023-05-10T03:52:44;16.67;;;15.07;;
1837;SDS011;918;50.796;6.772;2023-05-10T03:55:10;15.73;;;14.33;;
1837;SDS011;918;50.796;6.772;2023-05-10T03:57:35;16.90;;;15.20;;
1837;SDS011;918;50.796;6.772;2023-05-10T04:00:00;16.27;;;14.77;;
1837;SDS011;918;50.796;6.772;2023-05-10T04:02:26;16.13;;;14.60;;
1837;SDS011;918;50.796;6.772;2023-05-10T04:04:51;19.23;;;17.43;;
1837;SDS011;918;50.796;6.772;2023-05-10T04:07:17;17.40;;;15.70;;
1837;SDS011;918;50.796;6.772;2023-05-10T04:09:42;17.53;;;15.70;;
1837;SDS011;918;50.796;6.772;2023-05-10T04:12:08;16.33;;;14.63;;
1837;SDS011;918;50.796;6.772;2023-05-10T04:14:33;17.07;;;15.47;;
1837;SDS011;918;50.796;6.772;2023-05-10T04:16:59;16.73;;;15.23;;
1837;SDS011;918;50.796;6.772;2023-05-10T04:19:24;15.90;;;14.27;;
1837;SDS011;918;50.796;6.772;2023-05-10T04:21:54;17.23;;;15.47;;
1837;SDS011;918;50.796;6.772;2023-05-10T04:24:19;15.83;;;14.33;;
1837;SDS011;918;50.796;6.772;2023-05-10T04:26:44;16.30;;;14.80;;
1837;SDS011;918;50.796;6.772;2023-05-10T04:29:10;15.57;;;13.97;;
1837;SDS011;918;50.796;6.772;2023-05-10T04:31:35;16.50;;;14.80;;
1837;SDS011;918;50.796;6.772;2023-05-10T04:34:01;15.17;;;13.60;;
1837;SDS011;918;50.796;6.772;2023-05-10T04:36:26;15.90;;;14.50;;
1837;SDS011;918;50.796;6.772;2023-05-10T04:38:52;15.77;;;14.23;;
1837;SDS011;918;50.796;6.772;2023-05-10T04:41:17;14.87;;;13.47;;
1837;SDS011;918;50.796;6.772;2023-05-10T04:43:43;15.17;;;13.77;;
1837;SDS011;918;50.796;6.772;2023-05-10T04:46:08;15.87;;;14.30;;
1837;SDS011;918;50.796;6.772;2023-05-10T04:48:33;15.27;;;13.80;;
1837;SDS011;918;50.796;6.772;2023-05-10T04:50:58;16.27;;;14.77;;
1837;SDS011;918;50.796;6.772;2023-05-10T04:53:24;17.27;;;14.80;;
1837;SDS011;918;50.796;6.772;2023-05-10T04:55:49;18.00;;;16.30;;
1837;SDS011;918;50.796;6.772;2023-05-10T04:58:14;16.33;;;14.90;;
1837;SDS011;918;50.796;6.772;2023-05-10T05:00:39;18.70;;;16.80;;
1837;SDS011;918;50.796;6.772;2023-05-10T05:03:05;19.03;;;16.30;;
1837;SDS011;918;50.796;6.772;2023-05-10T05:05:30;17.53;;;15.93;;
1837;SDS011;918;50.796;6.772;2023-05-10T05:07:56;18.30;;;16.60;;
1837;SDS011;918;50.796;6.772;2023-05-10T05:10:21;18.57;;;16.80;;
1837;SDS011;918;50.796;6.772;2023-05-10T05:12:46;19.30;;;17.30;;
1837;SDS011;918;50.796;6.772;2023-05-10T05:15:12;18.37;;;16.67;;
1837;SDS011;918;50.796;6.772;2023-05-10T05:17:37;18.47;;;16.60;;
1837;SDS011;918;50.796;6.772;2023-05-10T05:20:02;18.90;;;17.07;;
1837;SDS011;918;50.796;6.772;2023-05-10T05:22:28;19.53;;;17.73;;
1837;SDS011;918;50.796;6.772;2023-05-10T05:24:54;18.20;;;16.37;;
1837;SDS011;918;50.796;6.772;2023-05-10T05:27:19;18.13;;;16.27;;
1837;SDS011;918;50.796;6.772;2023-05-10T05:29:47;20.97;;;17.17;;
1837;SDS011;918;50.796;6.772;2023-05-10T05:32:12;18.13;;;16.50;;
1837;SDS011;918;50.796;6.772;2023-05-10T05:34:37;17.53;;;15.83;;
1837;SDS011;918;50.796;6.772;2023-05-10T05:37:03;18.63;;;16.83;;
1837;SDS011;918;50.796;6.772;2023-05-10T05:39:28;17.70;;;16.10;;
1837;SDS011;918;50.796;6.772;2023-05-10T05:41:53;17.53;;;15.80;;
1837;SDS011;918;50.796;6.772;2023-05-10T05:44:18;17.17;;;15.37;;
1837;SDS011;918;50.796;6.772;2023-05-10T05:46:44;16.60;;;14.93;;
1837;SDS011;918;50.796;6.772;2023-05-10T05:49:09;13.73;;;12.50;;
1837;SDS011;918;50.796;6.772;2023-05-10T05:51:34;16.37;;;14.63;;
1837;SDS011;918;50.796;6.772;2023-05-10T05:54:00;15.10;;;13.50;;
1837;SDS011;918;50.796;6.772;2023-05-10T05:56:25;13.70;;;12.40;;
1837;SDS011;918;50.796;6.772;2023-05-10T05:58:51;12.40;;;11.20;;
1837;SDS011;918;50.796;6.772;2023-05-10T06:01:16;12.10;;;11.00;;
1837;SDS011;918;50.796;6.772;2023-05-10T06:03:41;11.53;;;10.30;;
1837;SDS011;918;50.796;6.772;2023-05-10T06:06:06;10.23;;;9.13;;
1837;SDS011;918;50.796;6.772;2023-05-10T06:08:32;9.40;;;8.37;;
1837;SDS011;918;50.796;6.772;2023-05-10T06:10:58;7.93;;;7.10;;
1837;SDS011;918;50.796;6.772;2023-05-10T06:13:24;8.13;;;7.33;;
1837;SDS011;918;50.796;6.772;2023-05-10T06:15:49;8.93;;;8.03;;
1837;SDS011;918;50.796;6.772;2023-05-10T06:18:14;7.73;;;6.87;;
1837;SDS011;918;50.796;6.772;2023-05-10T06:20:40;9.57;;;7.50;;
1837;SDS011;918;50.796;6.772;2023-05-10T06:23:06;7.60;;;6.87;;
1837;SDS011;918;50.796;6.772;2023-05-10T06:25:31;7.40;;;6.80;;
1837;SDS011;918;50.796;6.772;2023-05-10T06:27:56;7.90;;;7.17;;
1837;SDS011;918;50.796;6.772;2023-05-10T06:30:23;6.37;;;5.73;;
1837;SDS011;918;50.796;6.772;2023-05-10T06:32:52;9.03;;;7.60;;
1837;SDS011;918;50.796;6.772;2023-05-10T06:35:18;8.20;;;7.13;;
1837;SDS011;918;50.796;6.772;2023-05-10T06:37:43;7.47;;;6.77;;
1837;SDS011;918;50.796;6.772;2023-05-10T06:40:09;7.60;;;6.90;;
1837;SDS011;918;50.796;6.772;2023-05-10T06:42:34;7.40;;;6.70;;
1837;SDS011;918;50.796;6.772;2023-05-10T06:44:59;8.33;;;7.63;;
1837;SDS011;918;50.796;6.772;2023-05-10T06:47:25;10.00;;;6.87;;
1837;SDS011;918;50.796;6.772;2023-05-10T06:49:50;7.73;;;7.10;;
1837;SDS011;918;50.796;6.772;2023-05-10T06:52:16;8.07;;;7.00;;
1837;SDS011;918;50.796;6.772;2023-05-10T06:54:41;7.37;;;6.67;;
1837;SDS011;918;50.796;6.772;2023-05-10T06:57:06;7.83;;;7.03;;
1837;SDS011;918;50.796;6.772;2023-05-10T06:59:31;7.10;;;6.50;;
1837;SDS011;918;50.796;6.772;2023-05-10T07:01:57;7.00;;;6.40;;
1837;SDS011;918;50.796;6.772;2023-05-10T07:04:22;9.00;;;6.77;;
1837;SDS011;918;50.796;6.772;2023-05-10T07:06:47;6.60;;;6.00;;
1837;SDS011;918;50.796;6.772;2023-05-10T07:09:14;7.20;;;6.50;;
1837;SDS011;918;50.796;6.772;2023-05-10T07:11:39;7.17;;;6.47;;
1837;SDS011;918;50.796;6.772;2023-05-10T07:14:05;9.60;;;6.60;;
1837;SDS011;918;50.796;6.772;2023-05-10T07:16:30;7.90;;;5.60;;
1837;SDS011;918;50.796;6.772;2023-05-10T07:18:55;10.73;;;7.00;;
1837;SDS011;918;50.796;6.772;2023-05-10T07:21:20;9.20;;;6.07;;
1837;SDS011;918;50.796;6.772;2023-05-10T07:23:48;6.17;;;5.57;;
1837;SDS011;918;50.796;6.772;2023-05-10T07:26:14;6.03;;;5.47;;
1837;SDS011;918;50.796;6.772;2023-05-10T07:28:39;5.97;;;5.40;;
1837;SDS011;918;50.796;6.772;2023-05-10T07:31:05;6.13;;;5.50;;
1837;SDS011;918;50.796;6.772;2023-05-10T07:33:30;6.03;;;5.50;;
1837;SDS011;918;50.796;6.772;2023-05-10T07:35:56;5.80;;;5.30;;
1837;SDS011;918;50.796;6.772;2023-05-10T07:38:21;5.67;;;4.93;;
1837;SDS011;918;50.796;6.772;2023-05-10T07:40:46;5.10;;;4.67;;
1837;SDS011;918;50.796;6.772;2023-05-10T07:43:11;7.63;;;5.20;;
1837;SDS011;918;50.796;6.772;2023-05-10T07:45:37;4.70;;;4.30;;
1837;SDS011;918;50.796;6.772;2023-05-10T07:48:02;6.53;;;4.30;;
1837;SDS011;918;50.796;6.772;2023-05-10T07:50:27;5.17;;;4.80;;
1837;SDS011;918;50.796;6.772;2023-05-10T07:52:52;4.60;;;4.20;;
1837;SDS011;918;50.796;6.772;2023-05-10T07:55:18;4.13;;;3.80;;
1837;SDS011;918;50.796;6.772;2023-05-10T07:57:44;2.70;;;2.50;;
1837;SDS011;918;50.796;6.772;2023-05-10T08:00:15;2.20;;;2.10;;
1837;SDS011;918;50.796;6.772;2023-05-10T08:02:42;2.57;;;2.37;;
1837;SDS011;918;50.796;6.772;2023-05-10T08:05:07;2.37;;;1.40;;
1837;SDS011;918;50.796;6.772;2023-05-10T08:07:33;1.20;;;1.10;;
1837;SDS011;918;50.796;6.772;2023-05-10T08:09:58;1.50;;;1.40;;
1837;SDS011;918;50.796;6.772;2023-05-10T08:12:24;1.23;;;1.13;;
1837;SDS011;918;50.796;6.772;2023-05-10T08:14:50;1.43;;;1.00;;
1837;SDS011;918;50.796;6.772;2023-05-10T08:17:15;2.37;;;0.70;;
1837;SDS011;918;50.796;6.772;2023-05-10T08:19:40;0.80;;;0.80;;
1837;SDS011;918;50.796;6.772;2023-05-10T08:22:06;0.80;;;0.80;;
1837;SDS011;918;50.796;6.772;2023-05-10T08:24:31;0.70;;;0.70;;
1837;SDS011;918;50.796;6.772;2023-05-10T08:26:56;0.90;;;0.90;;
1837;SDS011;918;50.796;6.772;2023-05-10T08:29:22;0.73;;;0.70;;
1837;SDS011;918;50.796;6.772;2023-05-10T08:31:47;0.80;;;0.80;;
1837;SDS011;918;50.796;6.772;2023-05-10T08:34:12;1.03;;;0.93;;
1837;SDS011;918;50.796;6.772;2023-05-10T08:36:38;1.00;;;1.00;;
1837;SDS011;918;50.796;6.772;2023-05-10T08:39:03;1.90;;;0.93;;
1837;SDS011;918;50.796;6.772;2023-05-10T08:41:28;1.20;;;1.10;;
1837;SDS011;918;50.796;6.772;2023-05-10T08:43:55;0.93;;;0.93;;
1837;SDS011;918;50.796;6.772;2023-05-10T08:46:20;1.03;;;1.00;;
1837;SDS011;918;50.796;6.772;2023-05-10T08:48:47;1.40;;;1.30;;
1837;SDS011;918;50.796;6.772;2023-05-10T08:51:14;1.53;;;1.43;;
1837;SDS011;918;50.796;6.772;2023-05-10T08:53:43;1.77;;;1.67;;
1837;SDS011;918;50.796;6.772;2023-05-10T08:56:09;2.93;;;1.50;;
1837;SDS011;918;50.796;6.772;2023-05-10T08:58:35;1.60;;;1.50;;
1837;SDS011;918;50.796;6.772;2023-05-10T09:01:01;2.47;;;2.37;;
1837;SDS011;918;50.796;6.772;2023-05-10T09:03:27;2.13;;;1.93;;
1837;SDS011;918;50.796;6.772;2023-05-10T09:05:52;2.57;;;2.37;;
1837;SDS011;918;50.796;6.772;2023-05-10T09:08:18;2.23;;;2.13;;
1837;SDS011;918;50.796;6.772;2023-05-10T09:10:43;2.27;;;2.13;;
1837;SDS011;918;50.796;6.772;2023-05-10T09:13:09;2.10;;;2.00;;
1837;SDS011;918;50.796;6.772;2023-05-10T09:15:35;2.80;;;2.60;;
1837;SDS011;918;50.796;6.772;2023-05-10T09:18:02;3.37;;;3.07;;
1837;SDS011;918;50.796;6.772;2023-05-10T09:20:27;3.10;;;2.90;;
1837;SDS011;918;50.796;6.772;2023-05-10T09:22:53;5.30;;;4.80;;
1837;SDS011;918;50.796;6.772;2023-05-10T09:25:18;5.87;;;4.80;;
1837;SDS011;918;50.796;6.772;2023-05-10T09:27:45;8.53;;;7.70;;
1837;SDS011;918;50.796;6.772;2023-05-10T09:30:15;8.30;;;7.50;;
1837;SDS011;918;50.796;6.772;2023-05-10T09:32:47;10.97;;;8.70;;
1837;SDS011;918;50.796;6.772;2023-05-10T09:35:13;12.20;;;9.90;;
1837;SDS011;918;50.796;6.772;2023-05-10T09:37:41;11.53;;;10.13;;
1837;SDS011;918;50.796;6.772;2023-05-10T09:40:08;9.67;;;8.67;;
1837;SDS011;918;50.796;6.772;2023-05-10T09:42:36;9.60;;;8.03;;
1837;SDS011;918;50.796;6.772;2023-05-10T09:45:05;10.73;;;9.23;;
1837;SDS011;918;50.796;6.772;2023-05-10T09:47:34;9.20;;;8.37;;
1837;SDS011;918;50.796;6.772;2023-05-10T09:50:01;9.37;;;7.50;;
1837;SDS011;918;50.796;6.772;2023-05-10T09:52:29;9.17;;;8.00;;
1837;SDS011;918;50.796;6.772;2023-05-10T09:54:55;10.67;;;8.57;;
1837;SDS011;918;50.796;6.772;2023-05-10T09:57:21;8.17;;;6.70;;
1837;SDS011;918;50.796;6.772;2023-05-10T09:59:47;6.90;;;6.20;;
1837;SDS011;918;50.796;6.772;2023-05-10T10:02:12;3.97;;;3.63;;
1837;SDS011;918;50.796;6.772;2023-05-10T10:04:41;4.20;;;2.90;;
1837;SDS011;918;50.796;6.772;2023-05-10T10:07:06;2.07;;;1.97;;
1837;SDS011;918;50.796;6.772;2023-05-10T10:09:32;1.60;;;1.50;;
1837;SDS011;918;50.796;6.772;2023-05-10T10:11:59;1.87;;;1.77;;
1837;SDS011;918;50.796;6.772;2023-05-10T10:14:25;1.83;;;1.43;;
1837;SDS011;918;50.796;6.772;2023-05-10T10:16:50;1.70;;;1.60;;
1837;SDS011;918;50.796;6.772;2023-05-10T10:19:19;2.37;;;2.17;;
1837;SDS011;918;50.796;6.772;2023-05-10T10:21:45;2.87;;;2.67;;
1837;SDS011;918;50.796;6.772;2023-05-10T10:24:11;2.20;;;2.10;;
1837;SDS011;918;50.796;6.772;2023-05-10T10:26:36;2.07;;;1.97;;
1837;SDS011;918;50.796;6.772;2023-05-10T10:29:19;2.13;;;1.70;;
1837;SDS011;918;50.796;6.772;2023-05-10T10:34:33;1.80;;;1.70;;
1837;SDS011;918;50.796;6.772;2023-05-10T10:36:59;1.87;;;1.77;;
1837;SDS011;918;50.796;6.772;2023-05-10T10:39:29;1.97;;;1.80;;
1837;SDS011;918;50.796;6.772;2023-05-10T10:41:55;1.43;;;1.33;;
1837;SDS011;918;50.796;6.772;2023-05-10T10:52:21;1.40;;;1.20;;
1837;SDS011;918;50.796;6.772;2023-05-10T10:54:57;0.83;;;0.83;;
1837;SDS011;918;50.796;6.772;2023-05-10T10:57:23;1.17;;;1.17;;
1837;SDS011;918;50.796;6.772;2023-05-10T10:59:51;1.97;;;1.87;;
1837;SDS011;918;50.796;6.772;2023-05-10T11:02:32;3.53;;;3.33;;
1837;SDS011;918;50.796;6.772;2023-05-10T11:07:58;4.47;;;4.17;;
1837;SDS011;918;50.796;6.772;2023-05-10T11:10:24;4.07;;;3.87;;
1837;SDS011;918;50.796;6.772;2023-05-10T11:13:09;2.90;;;2.70;;
1837;SDS011;918;50.796;6.772;2023-05-10T11:15:38;2.60;;;2.40;;
1837;SDS011;918;50.796;6.772;2023-05-10T11:23:17;1.90;;;1.80;;
1837;SDS011;918;50.796;6.772;2023-05-10T11:25:47;2.00;;;1.90;;
1837;SDS011;918;50.796;6.772;2023-05-10T11:28:13;2.27;;;2.07;;
1837;SDS011;918;50.796;6.772;2023-05-10T11:30:40;2.10;;;2.00;;
1837;SDS011;918;50.796;6.772;2023-05-10T11:33:07;2.63;;;2.53;;
1837;SDS011;918;50.796;6.772;2023-05-10T11:35:39;1.33;;;1.33;;
1837;SDS011;918;50.796;6.772;2023-05-10T11:38:14;1.80;;;1.70;;
1837;SDS011;918;50.796;6.772;2023-05-10T11:40:40;1.40;;;1.40;;
1837;SDS011;918;50.796;6.772;2023-05-10T11:43:05;2.17;;;2.07;;
1837;SDS011;918;50.796;6.772;2023-05-10T11:45:34;1.37;;;1.37;;
1837;SDS011;918;50.796;6.772;2023-05-10T11:48:00;1.70;;;1.60;;
1837;SDS011;918;50.796;6.772;2023-05-10T11:50:25;1.30;;;1.20;;
1837;SDS011;918;50.796;6.772;2023-05-10T11:52:51;1.73;;;1.70;;
1837;SDS011;918;50.796;6.772;2023-05-10T11:55:20;1.10;;;1.10;;
1837;SDS011;918;50.796;6.772;2023-05-10T11:57:46;1.20;;;1.20;;
1837;SDS011;918;50.796;6.772;2023-05-10T12:00:14;1.53;;;1.43;;
1837;SDS011;918;50.796;6.772;2023-05-10T12:02:40;1.37;;;1.30;;
1837;SDS011;918;50.796;6.772;2023-05-10T12:05:05;1.13;;;1.10;;
1837;SDS011;918;50.796;6.772;2023-05-10T12:07:31;1.60;;;1.50;;
1837;SDS011;918;50.796;6.772;2023-05-10T12:10:04;2.03;;;1.93;;
1837;SDS011;918;50.796;6.772;2023-05-10T12:12:43;1.10;;;1.10;;
1837;SDS011;918;50.796;6.772;2023-05-10T12:15:19;1.70;;;1.60;;
1837;SDS011;918;50.796;6.772;2023-05-10T12:17:48;1.77;;;1.67;;
1837;SDS011;918;50.796;6.772;2023-05-10T12:20:17;1.53;;;1.50;;
1837;SDS011;918;50.796;6.772;2023-05-10T12:22:52;1.53;;;1.53;;
1837;SDS011;918;50.796;6.772;2023-05-10T12:25:18;1.70;;;1.60;;
1837;SDS011;918;50.796;6.772;2023-05-10T12:27:54;2.00;;;1.90;;
1837;SDS011;918;50.796;6.772;2023-05-10T12:30:24;1.37;;;1.27;;
1837;SDS011;918;50.796;6.772;2023-05-10T12:32:51;1.90;;;1.80;;
1837;SDS011;918;50.796;6.772;2023-05-10T12:35:16;1.50;;;1.40;;
1837;SDS011;918;50.796;6.772;2023-05-10T12:37:44;1.90;;;1.80;;
1837;SDS011;918;50.796;6.772;2023-05-10T12:40:09;1.60;;;1.50;;
1837;SDS011;918;50.796;6.772;2023-05-10T12:42:36;2.00;;;1.80;;
1837;SDS011;918;50.796;6.772;2023-05-10T12:45:03;2.03;;;1.57;;
1837;SDS011;918;50.796;6.772;2023-05-10T12:47:29;1.53;;;1.43;;
1837;SDS011;918;50.796;6.772;2023-05-10T12:49:54;3.67;;;1.90;;
1837;SDS011;918;50.796;6.772;2023-05-10T12:52:20;1.60;;;1.50;;
1837;SDS011;918;50.796;6.772;2023-05-10T12:54:45;1.80;;;1.60;;
1837;SDS011;918;50.796;6.772;2023-05-10T12:57:11;1.60;;;1.50;;
1837;SDS011;918;50.796;6.772;2023-05-10T12:59:36;2.43;;;2.17;;
1837;SDS011;918;50.796;6.772;2023-05-10T13:02:01;1.70;;;1.60;;
1837;SDS011;918;50.796;6.772;2023-05-10T13:04:26;1.60;;;1.50;;
1837;SDS011;918;50.796;6.772;2023-05-10T13:06:52;1.40;;;1.30;;
1837;SDS011;918;50.796;6.772;2023-05-10T13:09:17;1.60;;;1.50;;
1837;SDS011;918;50.796;6.772;2023-05-10T13:11:42;1.63;;;1.53;;
1837;SDS011;918;50.796;6.772;2023-05-10T13:14:07;1.57;;;1.47;;
1837;SDS011;918;50.796;6.772;2023-05-10T13:16:33;1.50;;;1.40;;
1837;SDS011;918;50.796;6.772;2023-05-10T13:18:58;1.50;;;1.40;;
1837;SDS011;918;50.796;6.772;2023-05-10T13:21:23;1.43;;;1.33;;
1837;SDS011;918;50.796;6.772;2023-05-10T13:23:50;2.57;;;1.53;;
1837;SDS011;918;50.796;6.772;2023-05-10T13:26:15;1.83;;;1.50;;
1837;SDS011;918;50.796;6.772;2023-05-10T13:28:40;1.70;;;1.60;;
1837;SDS011;918;50.796;6.772;2023-05-10T13:31:06;1.63;;;1.50;;
1837;SDS011;918;50.796;6.772;2023-05-10T13:33:31;1.77;;;1.50;;
1837;SDS011;918;50.796;6.772;2023-05-10T13:35:56;2.07;;;1.87;;
1837;SDS011;918;50.796;6.772;2023-05-10T13:38:21;1.60;;;1.50;;
1837;SDS011;918;50.796;6.772;2023-05-10T13:40:46;1.60;;;1.50;;
1837;SDS011;918;50.796;6.772;2023-05-10T13:43:12;1.70;;;1.60;;
1837;SDS011;918;50.796;6.772;2023-05-10T13:45:37;1.07;;;0.90;;
1837;SDS011;918;50.796;6.772;2023-05-10T13:48:03;1.83;;;1.60;;
1837;SDS011;918;50.796;6.772;2023-05-10T13:50:29;1.67;;;1.50;;
1837;SDS011;918;50.796;6.772;2023-05-10T13:52:54;2.30;;;1.90;;
1837;SDS011;918;50.796;6.772;2023-05-10T13:55:20;2.10;;;2.00;;
1837;SDS011;918;50.796;6.772;2023-05-10T13:57:45;1.97;;;1.87;;
1837;SDS011;918;50.796;6.772;2023-05-10T14:00:11;2.43;;;2.30;;
1837;SDS011;918;50.796;6.772;2023-05-10T14:02:36;2.17;;;2.07;;
1837;SDS011;918;50.796;6.772;2023-05-10T14:05:01;2.13;;;2.03;;
1837;SDS011;918;50.796;6.772;2023-05-10T14:07:27;2.37;;;2.00;;
1837;SDS011;918;50.796;6.772;2023-05-10T14:09:52;2.10;;;2.00;;
1837;SDS011;918;50.796;6.772;2023-05-10T14:12:17;2.00;;;1.90;;
1837;SDS011;918;50.796;6.772;2023-05-10T14:14:43;2.20;;;2.10;;
1837;SDS011;918;50.796;6.772;2023-05-10T14:17:08;2.33;;;2.23;;
1837;SDS011;918;50.796;6.772;2023-05-10T14:19:33;2.43;;;2.33;;
1837;SDS011;918;50.796;6.772;2023-05-10T14:21:59;2.43;;;2.23;;
1837;SDS011;918;50.796;6.772;2023-05-10T14:24:24;2.20;;;2.10;;
1837;SDS011;918;50.796;6.772;2023-05-10T14:26:50;2.67;;;2.57;;
1837;SDS011;918;50.796;6.772;2023-05-10T14:29:18;2.57;;;2.37;;
1837;SDS011;918;50.796;6.772;2023-05-10T14:31:43;2.37;;;2.20;;
1837;SDS011;918;50.796;6.772;2023-05-10T14:34:09;1.97;;;1.87;;
1837;SDS011;918;50.796;6.772;2023-05-10T14:36:34;2.60;;;2.50;;
1837;SDS011;918;50.796;6.772;2023-05-10T14:38:59;2.63;;;2.23;;
1837;SDS011;918;50.796;6.772;2023-05-10T14:41:24;2.47;;;2.37;;
1837;SDS011;918;50.796;6.772;2023-05-10T14:43:50;3.30;;;3.00;;
1837;SDS011;918;50.796;6.772;2023-05-10T14:46:15;2.10;;;2.00;;
1837;SDS011;918;50.796;6.772;2023-05-10T14:48:40;2.20;;;2.00;;
1837;SDS011;918;50.796;6.772;2023-05-10T14:51:06;2.40;;;2.20;;
1837;SDS011;918;50.796;6.772;2023-05-10T14:53:31;2.30;;;2.20;;
1837;SDS011;918;50.796;6.772;2023-05-10T14:55:57;5.80;;;2.30;;
1837;SDS011;918;50.796;6.772;2023-05-10T14:58:23;2.37;;;2.27;;
1837;SDS011;918;50.796;6.772;2023-05-10T15:00:48;2.50;;;2.30;;
1837;SDS011;918;50.796;6.772;2023-05-10T15:03:13;2.20;;;2.10;;
1837;SDS011;918;50.796;6.772;2023-05-10T15:05:38;2.03;;;1.93;;
1837;SDS011;918;50.796;6.772;2023-05-10T15:08:04;2.53;;;2.33;;
1837;SDS011;918;50.796;6.772;2023-05-10T15:10:30;2.23;;;2.13;;
1837;SDS011;918;50.796;6.772;2023-05-10T15:12:57;2.43;;;2.30;;
1837;SDS011;918;50.796;6.772;2023-05-10T15:15:22;2.00;;;1.90;;
1837;SDS011;918;50.796;6.772;2023-05-10T15:17:47;2.63;;;1.93;;
1837;SDS011;918;50.796;6.772;2023-05-10T15:20:13;2.03;;;1.93;;
1837;SDS011;918;50.796;6.772;2023-05-10T15:22:38;2.67;;;2.47;;
1837;SDS011;918;50.796;6.772;2023-05-10T15:25:03;2.03;;;1.90;;
1837;SDS011;918;50.796;6.772;2023-05-10T15:27:29;2.60;;;2.20;;
1837;SDS011;918;50.796;6.772;2023-05-10T15:29:54;2.40;;;2.20;;
1837;SDS011;918;50.796;6.772;2023-05-10T15:32:20;2.20;;;2.10;;
1837;SDS011;918;50.796;6.772;2023-05-10T15:34:45;2.33;;;2.10;;
1837;SDS011;918;50.796;6.772;2023-05-10T15:37:10;3.53;;;3.33;;
1837;SDS011;918;50.796;6.772;2023-05-10T15:39:36;2.97;;;2.77;;
1837;SDS011;918;50.796;6.772;2023-05-10T15:42:01;3.00;;;2.80;;
1837;SDS011;918;50.796;6.772;2023-05-10T15:44:27;3.13;;;2.93;;
1837;SDS011;918;50.796;6.772;2023-05-10T15:46:53;2.80;;;2.60;;
1837;SDS011;918;50.796;6.772;2023-05-10T15:49:18;3.17;;;2.87;;
1837;SDS011;918;50.796;6.772;2023-05-10T15:51:43;3.33;;;2.60;;
1837;SDS011;918;50.796;6.772;2023-05-10T15:54:08;2.93;;;2.73;;
1837;SDS011;918;50.796;6.772;2023-05-10T15:56:34;2.37;;;2.27;;